METAR Data
IDs: Format: Raw Decoded Include TAF

Data at: 2107 UTC 01 Dec 2021

EGHI 012050Z 36009KT 310V060 9999 FEW015 SCT048 06/03 Q1006